Time;durP1;ratioP1;P1;durP2;ratioP2;P2;SDS_P1;SDS_P2;PMS_P1;PMS_P2;Temp;Humidity;BMP_temperature;BMP_pressure;BME280_temperature;BME280_humidity;BME280_pressure;Samples;Min_cycle;Max_cycle;Signal;HPM_P1;HPM_P2
2019/05/11 00:00:21;;;;;;;2.35;2.15;;;;;;;10.94;72.34473;94817.91;;;;
2019/05/11 00:01:22;;;;;;;2.4;2.2;;;;;;;10.86;72.6416;94806.2;;;;
2019/05/11 00:02:23;;;;;;;2.4;2.2;;;;;;;10.86;72.6416;94806.2;;;;
2019/05/11 00:03:24;;;;;;;2.4;2.2;;;;;;;10.86;72.6416;94806.2;;;;
2019/05/11 00:04:25;;;;;;;2.4;2.2;;;;;;;10.86;72.6416;94806.2;;;;
2019/05/11 00:05:26;;;;;;;2.4;2.2;;;;;;;10.86;72.6416;94806.2;;;;
2019/05/11 00:06:27;;;;;;;2.4;2.2;;;;;;;10.86;72.6416;94806.2;;;;
2019/05/11 00:07:28;;;;;;;2.4;2.2;;;;;;;10.86;72.6416;94806.2;;;;
2019/05/11 00:08:29;;;;;;;2.4;2.2;;;;;;;10.86;72.6416;94806.2;;;;
2019/05/11 00:09:30;;;;;;;2.4;2.2;;;;;;;10.86;72.6416;94806.2;;;;
2019/05/11 00:10:31;;;;;;;2.4;2.2;;;;;;;10.86;72.6416;94806.2;;;;
2019/05/11 00:11:33;;;;;;;2.4;2.2;;;;;;;10.86;72.6416;94806.2;;;;
2019/05/11 00:12:34;;;;;;;2.4;2.2;;;;;;;10.86;72.6416;94806.2;;;;
2019/05/11 00:13:35;;;;;;;2.4;2.2;;;;;;;10.86;72.6416;94806.2;;;;
2019/05/11 00:14:36;;;;;;;2.4;2.2;;;;;;;10.86;72.6416;94806.2;;;;
2019/05/11 00:15:37;;;;;;;2.4;2.2;;;;;;;10.86;72.6416;94806.2;;;;
2019/05/11 00:16:38;;;;;;;2.4;2.2;;;;;;;10.86;72.6416;94806.2;;;;
2019/05/11 00:17:39;;;;;;;2.4;2.2;;;;;;;10.86;72.6416;94806.2;;;;
2019/05/11 00:18:40;;;;;;;2.4;2.2;;;;;;;10.86;72.6416;94806.2;;;;
2019/05/11 00:19:41;;;;;;;2.4;2.2;;;;;;;10.86;72.6416;94806.2;;;;
2019/05/11 00:20:42;;;;;;;2.4;2.2;;;;;;;10.86;72.6416;94806.2;;;;
2019/05/11 00:21:43;;;;;;;2.4;2.2;;;;;;;10.86;72.6416;94806.2;;;;
2019/05/11 00:22:44;;;;;;;2.4;2.2;;;;;;;10.78;73.05762;94780.02;;;;
2019/05/11 00:23:45;;;;;;;2.4;2.2;;;;;;;10.78;73.05762;94780.02;;;;
2019/05/11 00:24:46;;;;;;;2.4;2.2;;;;;;;10.78;73.05762;94780.02;;;;
2019/05/11 00:25:47;;;;;;;2.4;2.2;;;;;;;10.78;73.05762;94780.02;;;;
2019/05/11 00:26:49;;;;;;;2.4;2.2;;;;;;;10.78;73.05762;94780.02;;;;
2019/05/11 00:27:50;;;;;;;2.4;2.2;;;;;;;10.78;73.05762;94780.02;;;;
2019/05/11 00:28:51;;;;;;;2.4;2.2;;;;;;;10.78;73.05762;94780.02;;;;
2019/05/11 00:29:52;;;;;;;2.4;2.2;;;;;;;10.78;73.05762;94780.02;;;;
2019/05/11 00:30:53;;;;;;;2.4;2.2;;;;;;;10.78;73.05762;94780.02;;;;
2019/05/11 00:31:54;;;;;;;2.4;2.2;;;;;;;10.78;73.05762;94780.02;;;;
2019/05/11 00:32:55;;;;;;;3.45;2.85;;;;;;;10.67;73.44531;94763.81;;;;
2019/05/11 00:33:56;;;;;;;3.45;2.85;;;;;;;10.67;73.44531;94763.81;;;;
2019/05/11 00:34:57;;;;;;;3.45;2.85;;;;;;;10.67;73.44531;94763.81;;;;
2019/05/11 00:35:58;;;;;;;3.45;2.85;;;;;;;10.67;73.44531;94763.81;;;;
2019/05/11 00:37:00;;;;;;;3.45;2.85;;;;;;;10.67;73.44531;94763.81;;;;
2019/05/11 00:38:01;;;;;;;3.45;2.85;;;;;;;10.67;73.44531;94763.81;;;;
2019/05/11 00:39:03;;;;;;;3.45;2.85;;;;;;;10.67;73.44531;94763.81;;;;
2019/05/11 00:40:05;;;;;;;3.45;2.85;;;;;;;10.67;73.44531;94763.81;;;;
2019/05/11 00:41:06;;;;;;;3.45;2.85;;;;;;;10.67;73.44531;94763.81;;;;
2019/05/11 00:42:07;;;;;;;3.45;2.85;;;;;;;10.67;73.44531;94763.81;;;;
2019/05/11 00:43:08;;;;;;;4.7;3;;;;;;;10.66;73.96973;94750.45;;;;
2019/05/11 00:44:09;;;;;;;4.7;3;;;;;;;10.66;73.96973;94750.45;;;;
2019/05/11 00:45:11;;;;;;;4.7;3;;;;;;;10.66;73.96973;94750.45;;;;
2019/05/11 00:46:12;;;;;;;4.7;3;;;;;;;10.66;73.96973;94750.45;;;;
2019/05/11 00:47:13;;;;;;;4.7;3;;;;;;;10.66;73.96973;94750.45;;;;
2019/05/11 00:48:14;;;;;;;4.7;3;;;;;;;10.66;73.96973;94750.45;;;;
2019/05/11 00:49:15;;;;;;;4.7;3;;;;;;;10.66;73.96973;94750.45;;;;
2019/05/11 00:50:16;;;;;;;4.7;3;;;;;;;10.66;73.96973;94750.45;;;;
2019/05/11 00:51:17;;;;;;;4.7;3;;;;;;;10.66;73.96973;94750.45;;;;
2019/05/11 00:52:18;;;;;;;4.7;3;;;;;;;10.66;73.96973;94750.45;;;;
2019/05/11 00:53:19;;;;;;;4.7;3;;;;;;;10.66;73.96973;94750.45;;;;
2019/05/11 00:54:20;;;;;;;3.3;2.95;;;;;;;10.64;74.68262;94745.94;;;;
2019/05/11 00:55:21;;;;;;;3.3;2.95;;;;;;;10.64;74.68262;94745.94;;;;
2019/05/11 00:56:22;;;;;;;3.3;2.95;;;;;;;10.64;74.68262;94745.94;;;;
2019/05/11 00:57:23;;;;;;;3.3;2.95;;;;;;;10.64;74.68262;94745.94;;;;
2019/05/11 00:58:24;;;;;;;3.3;2.95;;;;;;;10.64;74.68262;94745.94;;;;
2019/05/11 00:59:25;;;;;;;3.3;2.95;;;;;;;10.64;74.68262;94745.94;;;;
2019/05/11 01:00:26;;;;;;;3.3;2.95;;;;;;;10.64;74.68262;94745.94;;;;
2019/05/11 01:01:28;;;;;;;3.3;2.95;;;;;;;10.64;74.68262;94745.94;;;;
2019/05/11 01:02:29;;;;;;;3.3;2.95;;;;;;;10.64;74.68262;94745.94;;;;
2019/05/11 01:03:31;;;;;;;3.3;2.95;;;;;;;10.64;74.68262;94745.94;;;;
2019/05/11 01:04:32;;;;;;;3.4;2.95;;;;;;;10.63;74.87109;94737.57;;;;
2019/05/11 01:05:33;;;;;;;3.4;2.95;;;;;;;10.63;74.87109;94737.57;;;;
2019/05/11 01:06:34;;;;;;;3.4;2.95;;;;;;;10.63;74.87109;94737.57;;;;
2019/05/11 01:07:35;;;;;;;3.4;2.95;;;;;;;10.63;74.87109;94737.57;;;;
2019/05/11 01:08:36;;;;;;;3.4;2.95;;;;;;;10.63;74.87109;94737.57;;;;
2019/05/11 01:09:37;;;;;;;3.4;2.95;;;;;;;10.63;74.87109;94737.57;;;;
2019/05/11 01:10:38;;;;;;;3.4;2.95;;;;;;;10.63;74.87109;94737.57;;;;
2019/05/11 01:11:39;;;;;;;3.4;2.95;;;;;;;10.63;74.87109;94737.57;;;;
2019/05/11 01:12:40;;;;;;;3.4;2.95;;;;;;;10.63;74.87109;94737.57;;;;
2019/05/11 01:13:41;;;;;;;3.4;2.95;;;;;;;10.63;74.87109;94737.57;;;;
2019/05/11 01:14:42;;;;;;;3.4;2.95;;;;;;;10.63;74.87109;94737.57;;;;
2019/05/11 01:15:44;;;;;;;3.4;2.95;;;;;;;10.63;74.87109;94737.57;;;;
2019/05/11 01:16:45;;;;;;;3.4;2.95;;;;;;;10.63;74.87109;94737.57;;;;
2019/05/11 01:17:46;;;;;;;3.4;2.95;;;;;;;10.63;74.87109;94737.57;;;;
2019/05/11 01:18:47;;;;;;;3.4;2.95;;;;;;;10.63;74.87109;94737.57;;;;
2019/05/11 01:19:48;;;;;;;3.4;2.95;;;;;;;10.63;74.87109;94737.57;;;;
2019/05/11 01:20:49;;;;;;;3.4;2.95;;;;;;;10.63;74.87109;94737.57;;;;
2019/05/11 01:21:50;;;;;;;3.4;2.95;;;;;;;10.63;74.87109;94737.57;;;;
2019/05/11 01:22:51;;;;;;;3.4;2.95;;;;;;;10.63;74.87109;94737.57;;;;
2019/05/11 01:23:53;;;;;;;3.4;2.95;;;;;;;10.63;74.87109;94737.57;;;;
2019/05/11 01:24:54;;;;;;;3.4;2.95;;;;;;;10.63;74.87109;94737.57;;;;
2019/05/11 01:25:55;;;;;;;3.25;2.95;;;;;;;10.58;75.34668;94703.63;;;;
2019/05/11 01:26:56;;;;;;;3.25;2.95;;;;;;;10.58;75.34668;94703.63;;;;
2019/05/11 01:27:57;;;;;;;3.25;2.95;;;;;;;10.58;75.34668;94703.63;;;;
2019/05/11 01:28:58;;;;;;;3.25;2.95;;;;;;;10.58;75.34668;94703.63;;;;
2019/05/11 01:29:59;;;;;;;3.25;2.95;;;;;;;10.58;75.34668;94703.63;;;;
2019/05/11 01:31:01;;;;;;;3.25;2.95;;;;;;;10.58;75.34668;94703.63;;;;
2019/05/11 01:32:02;;;;;;;3.25;2.95;;;;;;;10.58;75.34668;94703.63;;;;
2019/05/11 01:33:03;;;;;;;3.25;2.95;;;;;;;10.58;75.34668;94703.63;;;;
2019/05/11 01:34:04;;;;;;;3.25;2.95;;;;;;;10.58;75.34668;94703.63;;;;
2019/05/11 01:35:05;;;;;;;3.25;2.95;;;;;;;10.58;75.34668;94703.63;;;;
2019/05/11 01:36:07;;;;;;;3.4;2.7;;;;;;;10.53;75.61621;94688.31;;;;
2019/05/11 01:37:08;;;;;;;3.4;2.7;;;;;;;10.53;75.61621;94688.31;;;;
2019/05/11 01:38:09;;;;;;;3.4;2.7;;;;;;;10.53;75.61621;94688.31;;;;
2019/05/11 01:39:10;;;;;;;3.4;2.7;;;;;;;10.53;75.61621;94688.31;;;;
2019/05/11 01:40:11;;;;;;;3.4;2.7;;;;;;;10.53;75.61621;94688.31;;;;
2019/05/11 01:41:12;;;;;;;3.4;2.7;;;;;;;10.53;75.61621;94688.31;;;;
2019/05/11 01:42:13;;;;;;;3.4;2.7;;;;;;;10.53;75.61621;94688.31;;;;
2019/05/11 01:43:14;;;;;;;3.4;2.7;;;;;;;10.53;75.61621;94688.31;;;;
2019/05/11 01:44:15;;;;;;;3.4;2.7;;;;;;;10.53;75.61621;94688.31;;;;
2019/05/11 01:45:16;;;;;;;3.4;2.7;;;;;;;10.53;75.61621;94688.31;;;;
2019/05/11 01:46:17;;;;;;;3.4;2.7;;;;;;;10.53;75.61621;94688.31;;;;
2019/05/11 01:47:19;;;;;;;2.85;2.5;;;;;;;10.53;75.80859;94675.22;;;;
2019/05/11 01:48:20;;;;;;;2.85;2.5;;;;;;;10.53;75.80859;94675.22;;;;
2019/05/11 01:49:21;;;;;;;2.85;2.5;;;;;;;10.53;75.80859;94675.22;;;;
2019/05/11 01:50:22;;;;;;;2.85;2.5;;;;;;;10.53;75.80859;94675.22;;;;
2019/05/11 01:51:23;;;;;;;2.85;2.5;;;;;;;10.53;75.80859;94675.22;;;;
2019/05/11 01:52:24;;;;;;;2.85;2.5;;;;;;;10.53;75.80859;94675.22;;;;
2019/05/11 01:53:25;;;;;;;2.85;2.5;;;;;;;10.53;75.80859;94675.22;;;;
2019/05/11 01:54:26;;;;;;;2.85;2.5;;;;;;;10.53;75.80859;94675.22;;;;
2019/05/11 01:55:27;;;;;;;2.85;2.5;;;;;;;10.53;75.80859;94675.22;;;;
2019/05/11 01:56:29;;;;;;;2.85;2.5;;;;;;;10.53;75.80859;94675.22;;;;
2019/05/11 01:57:30;;;;;;;2.75;2.55;;;;;;;10.46;76.0752;94654.35;;;;
2019/05/11 01:58:31;;;;;;;2.75;2.55;;;;;;;10.46;76.0752;94654.35;;;;
2019/05/11 01:59:32;;;;;;;2.75;2.55;;;;;;;10.46;76.0752;94654.35;;;;
2019/05/11 02:00:33;;;;;;;2.75;2.55;;;;;;;10.46;76.0752;94654.35;;;;
2019/05/11 02:01:34;;;;;;;2.75;2.55;;;;;;;10.46;76.0752;94654.35;;;;
2019/05/11 02:02:35;;;;;;;2.75;2.55;;;;;;;10.46;76.0752;94654.35;;;;
2019/05/11 02:03:36;;;;;;;2.75;2.55;;;;;;;10.46;76.0752;94654.35;;;;
2019/05/11 02:04:37;;;;;;;2.75;2.55;;;;;;;10.46;76.0752;94654.35;;;;
2019/05/11 02:05:39;;;;;;;2.75;2.55;;;;;;;10.46;76.0752;94654.35;;;;
2019/05/11 02:06:40;;;;;;;2.75;2.55;;;;;;;10.46;76.0752;94654.35;;;;
2019/05/11 02:07:41;;;;;;;2.75;2.55;;;;;;;10.46;76.0752;94654.35;;;;
2019/05/11 02:08:42;;;;;;;2.6;2.4;;;;;;;10.49;76.18555;94658.83;;;;
2019/05/11 02:09:43;;;;;;;2.6;2.4;;;;;;;10.49;76.18555;94658.83;;;;
2019/05/11 02:10:44;;;;;;;2.6;2.4;;;;;;;10.49;76.18555;94658.83;;;;
2019/05/11 02:11:45;;;;;;;2.6;2.4;;;;;;;10.49;76.18555;94658.83;;;;
2019/05/11 02:12:46;;;;;;;2.6;2.4;;;;;;;10.49;76.18555;94658.83;;;;
2019/05/11 02:13:48;;;;;;;2.6;2.4;;;;;;;10.49;76.18555;94658.83;;;;
2019/05/11 02:14:49;;;;;;;2.6;2.4;;;;;;;10.49;76.18555;94658.83;;;;
2019/05/11 02:15:50;;;;;;;2.6;2.4;;;;;;;10.49;76.18555;94658.83;;;;
2019/05/11 02:16:51;;;;;;;2.6;2.4;;;;;;;10.49;76.18555;94658.83;;;;
2019/05/11 02:17:52;;;;;;;2.6;2.4;;;;;;;10.49;76.18555;94658.83;;;;
2019/05/11 02:18:53;;;;;;;3;2.7;;;;;;;10.41;76.30078;94652.12;;;;
2019/05/11 02:19:54;;;;;;;3;2.7;;;;;;;10.41;76.30078;94652.12;;;;
2019/05/11 02:20:55;;;;;;;3;2.7;;;;;;;10.41;76.30078;94652.12;;;;
2019/05/11 02:21:56;;;;;;;3;2.7;;;;;;;10.41;76.30078;94652.12;;;;
2019/05/11 02:22:58;;;;;;;3;2.7;;;;;;;10.41;76.30078;94652.12;;;;
2019/05/11 02:23:59;;;;;;;3;2.7;;;;;;;10.41;76.30078;94652.12;;;;
2019/05/11 02:25:00;;;;;;;3;2.7;;;;;;;10.41;76.30078;94652.12;;;;
2019/05/11 02:26:01;;;;;;;3;2.7;;;;;;;10.41;76.30078;94652.12;;;;
2019/05/11 02:27:02;;;;;;;3;2.7;;;;;;;10.41;76.30078;94652.12;;;;
2019/05/11 02:28:03;;;;;;;3;2.7;;;;;;;10.41;76.30078;94652.12;;;;
2019/05/11 02:29:04;;;;;;;2.3;2.1;;;;;;;10.39;76.44727;94652.37;;;;
2019/05/11 02:30:06;;;;;;;2.3;2.1;;;;;;;10.39;76.44727;94652.37;;;;
2019/05/11 02:31:07;;;;;;;2.3;2.1;;;;;;;10.39;76.44727;94652.37;;;;
2019/05/11 02:32:08;;;;;;;2.3;2.1;;;;;;;10.39;76.44727;94652.37;;;;
2019/05/11 02:33:09;;;;;;;2.3;2.1;;;;;;;10.39;76.44727;94652.37;;;;
2019/05/11 02:34:10;;;;;;;2.3;2.1;;;;;;;10.39;76.44727;94652.37;;;;
2019/05/11 02:35:11;;;;;;;2.3;2.1;;;;;;;10.39;76.44727;94652.37;;;;
2019/05/11 02:36:12;;;;;;;2.3;2.1;;;;;;;10.39;76.44727;94652.37;;;;
2019/05/11 02:37:14;;;;;;;2.3;2.1;;;;;;;10.39;76.44727;94652.37;;;;
2019/05/11 02:38:15;;;;;;;2.3;2.1;;;;;;;10.39;76.44727;94652.37;;;;
2019/05/11 02:39:16;;;;;;;2.3;2.1;;;;;;;10.39;76.44727;94652.37;;;;
2019/05/11 02:40:17;;;;;;;2.6;2.15;;;;;;;10.35;76.5459;94640.02;;;;
2019/05/11 02:41:19;;;;;;;2.6;2.15;;;;;;;10.35;76.5459;94640.02;;;;
2019/05/11 02:42:20;;;;;;;2.6;2.15;;;;;;;10.35;76.5459;94640.02;;;;
2019/05/11 02:43:21;;;;;;;2.6;2.15;;;;;;;10.35;76.5459;94640.02;;;;
2019/05/11 02:44:23;;;;;;;2.6;2.15;;;;;;;10.35;76.5459;94640.02;;;;
2019/05/11 02:45:24;;;;;;;2.6;2.15;;;;;;;10.35;76.5459;94640.02;;;;
2019/05/11 02:46:36;;;;;;;2.6;2.15;;;;;;;10.35;76.5459;94640.02;;;;
2019/05/11 02:47:37;;;;;;;2.6;2.15;;;;;;;10.35;76.5459;94640.02;;;;
2019/05/11 02:48:38;;;;;;;2.6;2.15;;;;;;;10.35;76.5459;94640.02;;;;
2019/05/11 02:49:39;;;;;;;2.6;2.15;;;;;;;10.35;76.5459;94640.02;;;;
2019/05/11 02:50:40;;;;;;;2.4;2.2;;;;;;;10.31;76.62598;94634.31;;;;
2019/05/11 02:51:41;;;;;;;2.4;2.2;;;;;;;10.31;76.62598;94634.31;;;;
2019/05/11 02:52:42;;;;;;;2.4;2.2;;;;;;;10.31;76.62598;94634.31;;;;
2019/05/11 02:53:43;;;;;;;2.4;2.2;;;;;;;10.31;76.62598;94634.31;;;;
2019/05/11 02:54:44;;;;;;;2.4;2.2;;;;;;;10.31;76.62598;94634.31;;;;
2019/05/11 02:55:46;;;;;;;2.4;2.2;;;;;;;10.31;76.62598;94634.31;;;;
2019/05/11 02:56:47;;;;;;;2.4;2.2;;;;;;;10.31;76.62598;94634.31;;;;
2019/05/11 02:57:48;;;;;;;2.4;2.2;;;;;;;10.31;76.62598;94634.31;;;;
2019/05/11 02:58:49;;;;;;;2.4;2.2;;;;;;;10.31;76.62598;94634.31;;;;
2019/05/11 02:59:50;;;;;;;2.4;2.2;;;;;;;10.31;76.62598;94634.31;;;;
2019/05/11 03:00:51;;;;;;;2.4;2.2;;;;;;;10.16;76.80273;94616.18;;;;
2019/05/11 03:01:52;;;;;;;2.4;2.2;;;;;;;10.16;76.80273;94616.18;;;;
2019/05/11 03:02:53;;;;;;;2.4;2.2;;;;;;;10.16;76.80273;94616.18;;;;
2019/05/11 03:03:54;;;;;;;2.4;2.2;;;;;;;10.16;76.80273;94616.18;;;;
2019/05/11 03:04:56;;;;;;;2.4;2.2;;;;;;;10.16;76.80273;94616.18;;;;
2019/05/11 03:05:57;;;;;;;2.4;2.2;;;;;;;10.16;76.80273;94616.18;;;;
2019/05/11 03:06:58;;;;;;;2.4;2.2;;;;;;;10.16;76.80273;94616.18;;;;
2019/05/11 03:07:59;;;;;;;2.4;2.2;;;;;;;10.16;76.80273;94616.18;;;;
2019/05/11 03:09:00;;;;;;;2.4;2.2;;;;;;;10.16;76.80273;94616.18;;;;
2019/05/11 03:10:01;;;;;;;2.4;2.2;;;;;;;10.16;76.80273;94616.18;;;;
2019/05/11 03:11:03;;;;;;;2.4;2.2;;;;;;;10.16;76.80273;94616.18;;;;
2019/05/11 03:12:04;;;;;;;3.75;2.2;;;;;;;10.15;77.01367;94598.35;;;;
2019/05/11 03:13:05;;;;;;;3.75;2.2;;;;;;;10.15;77.01367;94598.35;;;;
2019/05/11 03:14:06;;;;;;;3.75;2.2;;;;;;;10.15;77.01367;94598.35;;;;
2019/05/11 03:15:07;;;;;;;3.75;2.2;;;;;;;10.15;77.01367;94598.35;;;;
2019/05/11 03:16:08;;;;;;;3.75;2.2;;;;;;;10.15;77.01367;94598.35;;;;
2019/05/11 03:17:14;;;;;;;3.75;2.2;;;;;;;10.15;77.01367;94598.35;;;;
2019/05/11 03:18:15;;;;;;;3.75;2.2;;;;;;;10.15;77.01367;94598.35;;;;
2019/05/11 03:19:16;;;;;;;3.75;2.2;;;;;;;10.15;77.01367;94598.35;;;;
2019/05/11 03:20:17;;;;;;;3.75;2.2;;;;;;;10.15;77.01367;94598.35;;;;
2019/05/11 03:21:18;;;;;;;3.75;2.2;;;;;;;10.15;77.01367;94598.35;;;;
2019/05/11 03:22:19;;;;;;;2.75;2.2;;;;;;;10.08;77.09766;94591.88;;;;
2019/05/11 03:23:20;;;;;;;2.75;2.2;;;;;;;10.08;77.09766;94591.88;;;;
2019/05/11 03:24:21;;;;;;;2.75;2.2;;;;;;;10.08;77.09766;94591.88;;;;
2019/05/11 03:25:22;;;;;;;2.75;2.2;;;;;;;10.08;77.09766;94591.88;;;;
2019/05/11 03:26:23;;;;;;;2.75;2.2;;;;;;;10.08;77.09766;94591.88;;;;
2019/05/11 03:27:25;;;;;;;2.75;2.2;;;;;;;10.08;77.09766;94591.88;;;;
2019/05/11 03:28:26;;;;;;;2.75;2.2;;;;;;;10.08;77.09766;94591.88;;;;
2019/05/11 03:29:27;;;;;;;2.75;2.2;;;;;;;10.08;77.09766;94591.88;;;;
2019/05/11 03:30:28;;;;;;;2.75;2.2;;;;;;;10.08;77.09766;94591.88;;;;
2019/05/11 03:31:29;;;;;;;2.75;2.2;;;;;;;10.08;77.09766;94591.88;;;;
2019/05/11 03:32:30;;;;;;;2.3;2.1;;;;;;;10.12;77.32813;94573.64;;;;
2019/05/11 03:33:31;;;;;;;2.3;2.1;;;;;;;10.12;77.32813;94573.64;;;;
2019/05/11 03:34:32;;;;;;;2.3;2.1;;;;;;;10.12;77.32813;94573.64;;;;
2019/05/11 03:35:33;;;;;;;2.3;2.1;;;;;;;10.12;77.32813;94573.64;;;;
2019/05/11 03:36:34;;;;;;;2.3;2.1;;;;;;;10.12;77.32813;94573.64;;;;
2019/05/11 03:37:35;;;;;;;2.3;2.1;;;;;;;10.12;77.32813;94573.64;;;;
2019/05/11 03:38:36;;;;;;;2.3;2.1;;;;;;;10.12;77.32813;94573.64;;;;
2019/05/11 03:39:37;;;;;;;2.3;2.1;;;;;;;10.12;77.32813;94573.64;;;;
2019/05/11 03:40:38;;;;;;;2.3;2.1;;;;;;;10.12;77.32813;94573.64;;;;
2019/05/11 03:41:39;;;;;;;2.3;2.1;;;;;;;10.12;77.32813;94573.64;;;;
2019/05/11 03:42:40;;;;;;;2.3;2.1;;;;;;;10.12;77.32813;94573.64;;;;
2019/05/11 03:43:42;;;;;;;2.35;2.1;;;;;;;10.12;77.78809;94556.63;;;;
2019/05/11 03:44:43;;;;;;;2.35;2.1;;;;;;;10.12;77.78809;94556.63;;;;
2019/05/11 03:45:44;;;;;;;2.35;2.1;;;;;;;10.12;77.78809;94556.63;;;;
2019/05/11 03:46:45;;;;;;;2.35;2.1;;;;;;;10.12;77.78809;94556.63;;;;
2019/05/11 03:47:46;;;;;;;2.35;2.1;;;;;;;10.12;77.78809;94556.63;;;;
2019/05/11 03:48:47;;;;;;;2.35;2.1;;;;;;;10.12;77.78809;94556.63;;;;
2019/05/11 03:49:48;;;;;;;2.35;2.1;;;;;;;10.12;77.78809;94556.63;;;;
2019/05/11 03:50:49;;;;;;;2.35;2.1;;;;;;;10.12;77.78809;94556.63;;;;
2019/05/11 03:51:50;;;;;;;2.35;2.1;;;;;;;10.12;77.78809;94556.63;;;;
2019/05/11 03:52:51;;;;;;;2.35;2.1;;;;;;;10.12;77.78809;94556.63;;;;
2019/05/11 03:53:52;;;;;;;2.25;1.8;;;;;;;10.23;77.80762;94549.78;;;;
2019/05/11 03:54:53;;;;;;;2.25;1.8;;;;;;;10.23;77.80762;94549.78;;;;
2019/05/11 03:55:54;;;;;;;2.25;1.8;;;;;;;10.23;77.80762;94549.78;;;;
2019/05/11 03:56:55;;;;;;;2.25;1.8;;;;;;;10.23;77.80762;94549.78;;;;
2019/05/11 03:57:56;;;;;;;2.25;1.8;;;;;;;10.23;77.80762;94549.78;;;;
2019/05/11 03:58:57;;;;;;;2.25;1.8;;;;;;;10.23;77.80762;94549.78;;;;
2019/05/11 03:59:58;;;;;;;2.25;1.8;;;;;;;10.23;77.80762;94549.78;;;;
2019/05/11 04:01:00;;;;;;;2.25;1.8;;;;;;;10.23;77.80762;94549.78;;;;
2019/05/11 04:02:01;;;;;;;2.25;1.8;;;;;;;10.23;77.80762;94549.78;;;;
2019/05/11 04:03:02;;;;;;;2.25;1.8;;;;;;;10.23;77.80762;94549.78;;;;
2019/05/11 04:04:03;;;;;;;2.25;1.8;;;;;;;10.23;77.80762;94549.78;;;;
2019/05/11 04:05:04;;;;;;;1.9;1.7;;;;;;;10.28;77.65625;94540.91;;;;
2019/05/11 04:06:05;;;;;;;1.9;1.7;;;;;;;10.28;77.65625;94540.91;;;;
2019/05/11 04:07:06;;;;;;;1.9;1.7;;;;;;;10.28;77.65625;94540.91;;;;
2019/05/11 04:08:07;;;;;;;1.9;1.7;;;;;;;10.28;77.65625;94540.91;;;;
2019/05/11 04:09:08;;;;;;;1.9;1.7;;;;;;;10.28;77.65625;94540.91;;;;
2019/05/11 04:10:09;;;;;;;1.9;1.7;;;;;;;10.28;77.65625;94540.91;;;;
2019/05/11 04:11:10;;;;;;;1.9;1.7;;;;;;;10.28;77.65625;94540.91;;;;
2019/05/11 04:12:11;;;;;;;1.9;1.7;;;;;;;10.28;77.65625;94540.91;;;;
2019/05/11 04:13:12;;;;;;;1.9;1.7;;;;;;;10.28;77.65625;94540.91;;;;
2019/05/11 04:14:13;;;;;;;1.9;1.7;;;;;;;10.28;77.65625;94540.91;;;;
2019/05/11 04:15:15;;;;;;;1.9;1.5;;;;;;;10.47;77.65918;94540.33;;;;
2019/05/11 04:16:16;;;;;;;1.9;1.5;;;;;;;10.47;77.65918;94540.33;;;;
2019/05/11 04:17:19;;;;;;;1.9;1.5;;;;;;;10.47;77.65918;94540.33;;;;
2019/05/11 04:18:20;;;;;;;1.9;1.5;;;;;;;10.47;77.65918;94540.33;;;;
2019/05/11 04:19:21;;;;;;;1.9;1.5;;;;;;;10.47;77.65918;94540.33;;;;
2019/05/11 04:20:23;;;;;;;1.9;1.5;;;;;;;10.47;77.65918;94540.33;;;;
2019/05/11 04:21:24;;;;;;;1.9;1.5;;;;;;;10.47;77.65918;94540.33;;;;
2019/05/11 04:22:25;;;;;;;1.9;1.5;;;;;;;10.47;77.65918;94540.33;;;;
2019/05/11 04:23:26;;;;;;;1.9;1.5;;;;;;;10.47;77.65918;94540.33;;;;
2019/05/11 04:24:27;;;;;;;1.9;1.5;;;;;;;10.47;77.65918;94540.33;;;;
2019/05/11 04:25:28;;;;;;;1.65;1.5;;;;;;;10.59;77.4873;94551.93;;;;
2019/05/11 04:26:29;;;;;;;1.65;1.5;;;;;;;10.59;77.4873;94551.93;;;;
2019/05/11 04:27:30;;;;;;;1.65;1.5;;;;;;;10.59;77.4873;94551.93;;;;
2019/05/11 04:28:31;;;;;;;1.65;1.5;;;;;;;10.59;77.4873;94551.93;;;;
2019/05/11 04:29:32;;;;;;;1.65;1.5;;;;;;;10.59;77.4873;94551.93;;;;
2019/05/11 04:30:33;;;;;;;1.65;1.5;;;;;;;10.59;77.4873;94551.93;;;;
2019/05/11 04:31:35;;;;;;;1.65;1.5;;;;;;;10.59;77.4873;94551.93;;;;
2019/05/11 04:32:36;;;;;;;1.65;1.5;;;;;;;10.59;77.4873;94551.93;;;;
2019/05/11 04:33:37;;;;;;;1.65;1.5;;;;;;;10.59;77.4873;94551.93;;;;
2019/05/11 04:34:38;;;;;;;1.65;1.5;;;;;;;10.59;77.4873;94551.93;;;;
2019/05/11 04:35:39;;;;;;;1.65;1.5;;;;;;;10.59;77.4873;94551.93;;;;
2019/05/11 04:36:40;;;;;;;1.65;1.5;;;;;;;10.59;77.4873;94551.93;;;;
2019/05/11 04:37:41;;;;;;;1.65;1.5;;;;;;;10.59;77.4873;94551.93;;;;
2019/05/11 04:38:42;;;;;;;1.65;1.5;;;;;;;10.59;77.4873;94551.93;;;;
2019/05/11 04:39:43;;;;;;;1.65;1.5;;;;;;;10.59;77.4873;94551.93;;;;
2019/05/11 04:40:44;;;;;;;1.65;1.5;;;;;;;10.59;77.4873;94551.93;;;;
2019/05/11 04:41:45;;;;;;;1.65;1.5;;;;;;;10.59;77.4873;94551.93;;;;
2019/05/11 04:42:46;;;;;;;1.65;1.5;;;;;;;10.59;77.4873;94551.93;;;;
2019/05/11 04:43:47;;;;;;;1.65;1.5;;;;;;;10.59;77.4873;94551.93;;;;
2019/05/11 04:44:48;;;;;;;1.65;1.5;;;;;;;10.59;77.4873;94551.93;;;;
2019/05/11 04:45:49;;;;;;;1.65;1.5;;;;;;;10.59;77.4873;94551.93;;;;
2019/05/11 04:46:51;;;;;;;2.55;1.7;;;;;;;10.69;77.41992;94586.19;;;;
2019/05/11 04:47:52;;;;;;;2.55;1.7;;;;;;;10.69;77.41992;94586.19;;;;
2019/05/11 04:48:53;;;;;;;2.55;1.7;;;;;;;10.69;77.41992;94586.19;;;;
2019/05/11 04:49:54;;;;;;;2.55;1.7;;;;;;;10.69;77.41992;94586.19;;;;
2019/05/11 04:50:55;;;;;;;2.55;1.7;;;;;;;10.69;77.41992;94586.19;;;;
2019/05/11 04:51:56;;;;;;;2.55;1.7;;;;;;;10.69;77.41992;94586.19;;;;
2019/05/11 04:52:57;;;;;;;2.55;1.7;;;;;;;10.69;77.41992;94586.19;;;;
2019/05/11 04:53:58;;;;;;;2.55;1.7;;;;;;;10.69;77.41992;94586.19;;;;
2019/05/11 04:54:59;;;;;;;2.55;1.7;;;;;;;10.69;77.41992;94586.19;;;;
2019/05/11 04:56:00;;;;;;;2.55;1.7;;;;;;;10.69;77.41992;94586.19;;;;
2019/05/11 04:57:01;;;;;;;2.55;1.7;;;;;;;10.69;77.41992;94586.19;;;;
2019/05/11 04:58:02;;;;;;;2.55;1.7;;;;;;;10.69;77.41992;94586.19;;;;
2019/05/11 04:59:03;;;;;;;2.55;1.7;;;;;;;10.69;77.41992;94586.19;;;;
2019/05/11 05:00:04;;;;;;;2.55;1.7;;;;;;;10.69;77.41992;94586.19;;;;
2019/05/11 05:01:08;;;;;;;2.55;1.7;;;;;;;10.69;77.41992;94586.19;;;;
2019/05/11 05:02:09;;;;;;;2.55;1.7;;;;;;;10.69;77.41992;94586.19;;;;
2019/05/11 05:03:10;;;;;;;2.55;1.7;;;;;;;10.69;77.41992;94586.19;;;;
2019/05/11 05:04:11;;;;;;;2.55;1.7;;;;;;;10.69;77.41992;94586.19;;;;
2019/05/11 05:05:12;;;;;;;2.55;1.7;;;;;;;10.69;77.41992;94586.19;;;;
2019/05/11 05:06:13;;;;;;;2.55;1.7;;;;;;;10.69;77.41992;94586.19;;;;
2019/05/11 05:07:14;;;;;;;2.55;1.7;;;;;;;10.69;77.41992;94586.19;;;;
2019/05/11 05:08:15;;;;;;;2.35;2.15;;;;;;;11.15;77.41406;94601.78;;;;
2019/05/11 05:09:16;;;;;;;2.35;2.15;;;;;;;11.15;77.41406;94601.78;;;;
2019/05/11 05:10:17;;;;;;;2.35;2.15;;;;;;;11.15;77.41406;94601.78;;;;
2019/05/11 05:11:18;;;;;;;2.35;2.15;;;;;;;11.15;77.41406;94601.78;;;;
2019/05/11 05:12:19;;;;;;;2.35;2.15;;;;;;;11.15;77.41406;94601.78;;;;
2019/05/11 05:13:20;;;;;;;2.35;2.15;;;;;;;11.15;77.41406;94601.78;;;;
2019/05/11 05:14:21;;;;;;;2.35;2.15;;;;;;;11.15;77.41406;94601.78;;;;
2019/05/11 05:15:23;;;;;;;2.35;2.15;;;;;;;11.15;77.41406;94601.78;;;;
2019/05/11 05:16:24;;;;;;;2.35;2.15;;;;;;;11.15;77.41406;94601.78;;;;
2019/05/11 05:17:25;;;;;;;2.35;2.15;;;;;;;11.15;77.41406;94601.78;;;;
2019/05/11 05:18:26;;;;;;;2.35;2.15;;;;;;;11.15;77.41406;94601.78;;;;
2019/05/11 05:19:27;;;;;;;2.5;1.95;;;;;;;11.26;77.85156;94627.83;;;;
2019/05/11 05:20:28;;;;;;;2.5;1.95;;;;;;;11.26;77.85156;94627.83;;;;
2019/05/11 05:21:29;;;;;;;2.5;1.95;;;;;;;11.26;77.85156;94627.83;;;;
2019/05/11 05:22:30;;;;;;;2.5;1.95;;;;;;;11.26;77.85156;94627.83;;;;
2019/05/11 05:23:31;;;;;;;2.5;1.95;;;;;;;11.26;77.85156;94627.83;;;;
2019/05/11 05:24:32;;;;;;;2.5;1.95;;;;;;;11.26;77.85156;94627.83;;;;
2019/05/11 05:25:33;;;;;;;2.5;1.95;;;;;;;11.26;77.85156;94627.83;;;;
2019/05/11 05:26:34;;;;;;;2.5;1.95;;;;;;;11.26;77.85156;94627.83;;;;
2019/05/11 05:27:35;;;;;;;2.5;1.95;;;;;;;11.26;77.85156;94627.83;;;;
2019/05/11 05:28:36;;;;;;;2.5;1.95;;;;;;;11.26;77.85156;94627.83;;;;
2019/05/11 05:29:37;;;;;;;3.1;2.1;;;;;;;11.32;78.04395;94613.83;;;;
2019/05/11 05:30:38;;;;;;;3.1;2.1;;;;;;;11.32;78.04395;94613.83;;;;
2019/05/11 05:31:39;;;;;;;3.1;2.1;;;;;;;11.32;78.04395;94613.83;;;;
2019/05/11 05:32:40;;;;;;;3.1;2.1;;;;;;;11.32;78.04395;94613.83;;;;
2019/05/11 05:33:42;;;;;;;3.1;2.1;;;;;;;11.32;78.04395;94613.83;;;;
2019/05/11 05:34:43;;;;;;;3.1;2.1;;;;;;;11.32;78.04395;94613.83;;;;
2019/05/11 05:35:44;;;;;;;3.1;2.1;;;;;;;11.32;78.04395;94613.83;;;;
2019/05/11 05:36:45;;;;;;;3.1;2.1;;;;;;;11.32;78.04395;94613.83;;;;
2019/05/11 05:37:46;;;;;;;3.1;2.1;;;;;;;11.32;78.04395;94613.83;;;;
2019/05/11 05:38:47;;;;;;;3.1;2.1;;;;;;;11.32;78.04395;94613.83;;;;
2019/05/11 05:39:48;;;;;;;3.1;2.1;;;;;;;11.32;78.04395;94613.83;;;;
2019/05/11 05:40:49;;;;;;;2.35;2.15;;;;;;;11.34;78.31445;94653.58;;;;
2019/05/11 05:41:50;;;;;;;2.35;2.15;;;;;;;11.34;78.31445;94653.58;;;;
2019/05/11 05:42:51;;;;;;;2.35;2.15;;;;;;;11.34;78.31445;94653.58;;;;
2019/05/11 05:43:52;;;;;;;2.35;2.15;;;;;;;11.34;78.31445;94653.58;;;;
2019/05/11 05:44:53;;;;;;;2.35;2.15;;;;;;;11.34;78.31445;94653.58;;;;
2019/05/11 05:45:54;;;;;;;2.35;2.15;;;;;;;11.34;78.31445;94653.58;;;;
2019/05/11 05:46:55;;;;;;;2.35;2.15;;;;;;;11.34;78.31445;94653.58;;;;
2019/05/11 05:47:56;;;;;;;2.35;2.15;;;;;;;11.34;78.31445;94653.58;;;;
2019/05/11 05:48:57;;;;;;;2.35;2.15;;;;;;;11.34;78.31445;94653.58;;;;
2019/05/11 05:49:58;;;;;;;2.35;2.15;;;;;;;11.34;78.31445;94653.58;;;;
2019/05/11 05:50:59;;;;;;;2.35;2.15;;;;;;;11.34;78.31445;94653.58;;;;
2019/05/11 05:52:01;;;;;;;2.35;2.15;;;;;;;11.34;78.31445;94653.58;;;;
2019/05/11 05:53:02;;;;;;;2.35;2.15;;;;;;;11.34;78.31445;94653.58;;;;